Latest Weather Observations for Naracoorte

IDS60801

Issued at 11:32 pm CDT Friday 27 March 2015 (issued every 30 minutes, with the page automatically refreshed every 10 minutes)

About weather observations | Map of weather stations | Latest weather observations for SA | Other Formats
Station Details ID: 026099 Name: NARACOORTE AERODROME Lat: -36.98 Lon: 140.73 Height: 49.72 m
Data from the previous 72 hours. | See also: Recent months at Naracoorte
Date/Time
CDT
Temp
°C
App
Temp
°C
Dew
Point
Rel
Hum
%
Delta-T
°C
Wind Press
QNH
hPa
Press
MSL
hPa
Rain
since 9 am
mm
Dir
 
Spd
km/h
Gust
km/h
Spd
kts
Gust
kts
27/11:30pm 9.1 7.4 8.2 94 0.4 SSE 7 7 4 4 1026.7 1026.6 0.0
27/11:00pm 9.9 7.9 8.5 91 0.7 SSE 9 11 5 6 1026.9 1026.8 0.0
27/10:30pm 11.3 9.2 9.7 90 0.8 SSE 11 11 6 6 1026.9 1026.8 0.0
27/10:00pm 12.6 10.4 10.7 88 1.0 SE 13 17 7 9 1027.0 1026.9 0.0
27/09:30pm 13.3 11.1 10.8 85 1.3 SSE 13 17 7 9 1027.0 1026.9 0.0
27/09:00pm 13.5 11.7 10.9 84 1.4 S 11 13 6 7 1026.9 1026.8 0.0
27/08:30pm 13.6 11.4 10.9 84 1.4 SSE 13 17 7 9 1026.8 1026.7 0.0
27/08:00pm 14.0 10.7 10.8 81 1.7 SSE 19 22 10 12 1026.5 1026.4 0.0
27/07:30pm 14.7 11.7 10.5 76 2.2 SSE 17 20 9 11 1026.2 1026.1 0.0
27/07:00pm 15.2 11.7 10.2 72 2.6 S 19 22 10 12 1025.9 1025.8 0.0
27/06:30pm 15.9 11.1 10.2 69 3.0 SW 26 30 14 16 1025.7 1025.6 0.0
27/06:00pm 16.1 13.0 10.4 69 3.0 SSW 17 20 9 11 1025.7 1025.6 0.0
27/05:30pm 16.1 12.7 10.6 70 2.9 SW 19 24 10 13 1025.6 1025.5 0.0
27/05:00pm 16.7 12.4 10.8 68 3.2 SSW 24 30 13 16 1025.6 1025.5 0.0
27/04:30pm 15.2 10.2 11.0 76 2.2 SSW 28 35 15 19 1025.7 1025.6 0.0
27/04:00pm 16.3 11.6 10.6 69 3.0 SSE 26 33 14 18 1025.5 1025.4 0.0
27/03:30pm 15.9 11.1 10.4 70 2.9 SSW 26 33 14 18 1025.7 1025.6 0.0
27/03:00pm 16.2 12.9 9.6 65 3.4 SSE 17 24 9 13 1025.8 1025.7 0.0
27/02:30pm 16.6 12.9 9.3 62 3.8 S 19 26 10 14 1025.9 1025.8 0.0
27/02:00pm 16.7 13.4 9.6 63 3.7 SSW 17 22 9 12 1026.4 1026.3 0.0
27/01:30pm 16.8 13.4 9.0 60 4.0 SSW 17 32 9 17 1026.6 1026.5 0.0
27/01:00pm 15.4 11.6 9.7 69 3.0 SW 20 26 11 14 1027.1 1027.0 0.0
27/12:30pm 15.2 11.3 9.6 69 2.9 SSW 20 30 11 16 1027.4 1027.3 0.0
27/12:00pm 16.2 12.7 8.7 61 3.8 S 17 30 9 16 1027.3 1027.2 0.0
27/11:30am 16.1 12.2 8.8 62 3.7 SSW 19 24 10 13 1027.6 1027.5 0.0
27/11:00am 15.0 10.5 8.7 66 3.2 SSW 22 28 12 15 1027.6 1027.5 0.0
27/10:30am 15.2 10.8 9.1 67 3.1 SSW 22 32 12 17 1027.5 1027.4 0.0
27/10:00am 13.3 9.7 9.9 80 1.8 SSW 19 22 10 12 1027.7 1027.6 0.0
27/09:30am 13.6 11.8 12.2 91 0.8 WSW 13 17 7 9 1027.5 1027.4 0.0
27/09:00am 11.9 10.5 11.0 94 0.5 SW 9 11 5 6 1027.3 1027.2 1.0
27/08:30am 10.6 9.0 10.1 97 0.3 WSW 9 11 5 6 1027.3 1027.2 1.0
27/08:00am 9.0 7.3 8.5 97 0.2 W 7 9 4 5 1027.0 1026.9 1.0
27/07:30am 7.5 6.1 7.1 97 0.2 WSW 4 7 2 4 1026.7 1026.6 1.0
27/07:00am 7.8 7.2 7.4 97 0.2 CALM 0 0 0 0 1026.5 1026.4 1.0
27/06:30am 7.7 4.9 7.1 96 0.3 W 11 13 6 7 1026.2 1026.1 1.0
27/06:00am 8.4 6.6 8.0 97 0.2 WNW 7 11 4 6 1026.0 1025.9 1.0
27/05:30am 8.6 6.5 8.2 97 0.2 WNW 9 9 5 5 1025.6 1025.5 1.0
27/05:00am 8.4 6.6 8.0 97 0.2 WNW 7 9 4 5 1025.5 1025.4 1.0
27/04:30am 9.0 6.2 8.5 97 0.2 WNW 13 15 7 8 1025.4 1025.3 1.0
27/04:00am 9.3 6.5 8.7 96 0.3 WNW 13 15 7 8 1025.3 1025.2 1.0
27/03:30am 9.2 6.4 8.6 96 0.3 WNW 13 17 7 9 1025.4 1025.3 1.0
27/03:00am 9.4 6.7 8.8 96 0.3 W 13 15 7 8 1025.5 1025.4 1.0
27/02:30am 9.0 6.1 8.2 95 0.4 WNW 13 15 7 8 1025.5 1025.4 1.0
27/02:00am 10.3 7.0 9.5 95 0.4 W 17 20 9 11 1025.5 1025.4 1.0
27/01:30am 9.9 7.6 9.1 95 0.4 W 11 13 6 7 1025.4 1025.3 1.0
27/01:00am 10.7 8.2 9.8 94 0.5 WSW 13 15 7 8 1025.2 1025.1 1.0
27/12:30am 11.3 7.9 10.4 94 0.5 W 19 22 10 12 1025.2 1025.1 1.0
27/12:00am 11.4 7.8 10.5 94 0.5 W 20 26 11 14 1025.3 1025.2 1.0
 
Date/Time
CDT
Temp
°C
App
Temp
°C
Dew
Point
Rel
Hum
%
Delta-T
°C
Wind Press
QNH
hPa
Press
MSL
hPa
Rain
since 9 am
mm
Dir
 
Spd
km/h
Gust
km/h
Spd
kts
Gust
kts
26/11:30pm 11.5 7.9 10.4 93 0.6 WSW 20 22 11 12 1025.4 1025.3 1.0
26/11:00pm 11.6 8.0 10.5 93 0.6 W 20 26 11 14 1025.4 1025.3 1.0
26/10:30pm 11.3 7.8 10.2 93 0.6 W 19 24 10 13 1025.5 1025.4 1.0
26/10:00pm 11.4 7.9 10.3 93 0.6 W 19 24 10 13 1025.5 1025.4 1.0
26/09:30pm 11.4 7.9 10.1 92 0.7 W 19 22 10 12 1025.3 1025.2 0.8
26/09:00pm 11.4 7.3 10.1 92 0.7 W 22 28 12 15 1025.0 1024.9 0.8
26/08:30pm 11.4 7.7 10.1 92 0.7 W 20 24 11 13 1024.7 1024.6 0.8
26/08:00pm 11.5 7.7 9.8 89 0.9 WSW 20 26 11 14 1024.5 1024.4 0.8
26/07:30pm 12.1 7.4 9.3 83 1.4 W 24 28 13 15 1024.1 1024.0 0.8
26/07:00pm 12.1 6.6 9.3 83 1.4 W 28 35 15 19 1023.8 1023.7 0.8
26/06:30pm 12.1 5.6 8.9 81 1.6 WSW 33 43 18 23 1023.5 1023.4 0.8
26/06:00pm 12.7 6.4 9.0 78 1.9 WSW 32 41 17 22 1023.3 1023.2 0.8
26/05:30pm 12.1 5.4 9.5 84 1.3 WSW 35 46 19 25 1023.2 1023.1 0.8
26/05:00pm 14.2 6.7 7.9 66 3.1 WSW 37 48 20 26 1022.7 1022.6 0.8
26/04:30pm 14.2 5.7 7.0 62 3.5 WSW 41 54 22 29 1022.5 1022.4 0.8
26/04:00pm 14.6 6.1 6.9 60 3.8 WSW 41 56 22 30 1022.3 1022.2 0.8
26/03:30pm 14.1 7.3 9.1 72 2.5 WSW 35 48 19 26 1022.3 1022.2 0.8
26/03:11pm 13.0 4.5 9.4 79 1.8 WSW 44 63 24 34 1022.5 1022.4 0.8
26/03:00pm 13.9 5.2 8.3 69 2.8 SW 44 61 24 33 1022.2 1022.1 0.8
26/02:30pm 14.5 5.7 8.2 66 3.1 SW 44 57 24 31 1022.2 1022.1 0.8
26/02:00pm 13.1 4.5 8.8 75 2.2 SW 44 63 24 34 1022.3 1022.2 0.8
26/01:50pm 13.7 3.7 7.7 67 3.0 WSW 50 61 27 33 1022.1 1022.0 0.8
26/01:36pm 14.7 5.8 6.8 59 3.9 WSW 43 61 23 33 1022.0 1021.9 0.8
26/01:30pm 14.5 6.0 8.5 67 3.0 WSW 43 57 23 31 1022.0 1021.9 0.8
26/01:00pm 12.7 5.1 9.2 79 1.8 SW 39 59 21 32 1022.0 1021.9 0.8
26/12:59pm 12.7 4.8 9.2 79 1.8 SW 41 59 22 32 1022.0 1021.9 0.8
26/12:30pm 14.7 6.3 7.3 61 3.6 WSW 41 50 22 27 1022.1 1022.0 0.8
26/12:00pm 13.3 7.1 9.2 76 2.1 WSW 32 43 17 23 1021.9 1021.8 0.8
26/11:30am 12.0 5.5 8.3 78 1.8 WSW 32 41 17 22 1022.0 1021.9 0.4
26/11:00am 11.7 3.7 7.4 75 2.1 WSW 39 57 21 31 1022.1 1022.0 0.2
26/10:58am 12.0 3.7 6.3 68 2.7 WSW 39 57 21 31 1022.1 1022.0 0.2
26/10:30am 14.0 6.9 6.6 61 3.6 WSW 33 46 18 25 1021.7 1021.6 0.2
26/10:00am 13.3 7.7 8.6 73 2.4 W 28 39 15 21 1021.6 1021.5 0.2
26/09:30am 11.9 7.7 8.2 78 1.8 W 20 26 11 14 1021.3 1021.2 0.2
26/09:00am 9.6 6.1 7.2 85 1.1 NW 15 20 8 11 1021.2 1021.1 2.6
26/08:30am 8.3 5.7 5.9 85 1.1 NNW 9 11 5 6 1020.8 1020.7 2.6
26/08:00am 7.1 4.8 5.7 91 0.6 WNW 7 9 4 5 1020.5 1020.4 2.6
26/07:30am 6.7 3.2 5.3 91 0.6 WNW 13 15 7 8 1020.1 1020.0 2.6
26/07:00am 6.3 3.1 5.1 92 0.5 NNW 11 15 6 8 1019.7 1019.6 2.6
26/06:30am 6.5 3.7 5.1 91 0.6 N 9 13 5 7 1019.5 1019.4 2.6
26/06:00am 6.5 2.9 5.0 90 0.7 WNW 13 15 7 8 1019.7 1019.6 2.4
26/05:30am 6.9 3.3 4.9 87 0.9 NW 13 17 7 9 1019.0 1018.9 2.4
26/05:00am 6.9 2.9 5.1 88 0.8 W 15 19 8 10 1018.6 1018.5 2.4
26/04:30am 7.7 2.9 5.8 88 0.9 NW 20 30 11 16 1018.6 1018.5 2.2
26/04:00am 7.1 3.2 5.3 88 0.8 WNW 15 19 8 10 1018.3 1018.2 2.2
26/03:30am 6.5 3.3 5.1 91 0.6 NNW 11 15 6 8 1018.0 1017.9 2.2
26/03:00am 7.0 3.9 5.6 91 0.6 NNW 11 13 6 7 1018.0 1017.9 2.2
26/02:30am 7.1 4.5 5.9 92 0.5 NNW 9 13 5 7 1018.1 1018.0 2.2
26/02:00am 7.2 5.0 6.0 92 0.5 NNW 7 11 4 6 1017.9 1017.8 2.2
26/01:30am 7.4 6.1 6.0 91 0.6 NNW 2 9 1 5 1018.0 1017.9 2.2
26/01:00am 6.2 3.4 5.0 92 0.5 W 9 9 5 5 1017.8 1017.7 2.2
26/12:30am 7.5 4.0 5.6 88 0.9 W 13 17 7 9 1017.6 1017.5 2.2
26/12:00am 8.6 3.6 6.6 87 0.9 W 22 33 12 18 1017.5 1017.4 2.2
 
Date/Time
CDT
Temp
°C
App
Temp
°C
Dew
Point
Rel
Hum
%
Delta-T
°C
Wind Press
QNH
hPa
Press
MSL
hPa
Rain
since 9 am
mm
Dir
 
Spd
km/h
Gust
km/h
Spd
kts
Gust
kts
25/11:30pm 8.7 4.7 6.7 87 0.9 WNW 17 20 9 11 1017.4 1017.3 2.2
25/11:00pm 8.6 5.0 6.9 89 0.8 WNW 15 17 8 9 1017.4 1017.3 2.2
25/10:30pm 9.4 5.6 7.7 89 0.8 NW 17 20 9 11 1017.3 1017.2 2.2
25/10:00pm 9.6 5.9 8.0 90 0.8 NW 17 22 9 12 1017.1 1017.0 2.2
25/09:30pm 10.2 6.7 8.8 91 0.7 NW 17 20 9 11 1016.6 1016.5 2.2
25/09:00pm 10.6 7.2 9.0 90 0.8 NW 17 22 9 12 1016.2 1016.1 2.2
25/08:30pm 10.5 7.4 8.9 90 0.8 NW 15 20 8 11 1016.3 1016.2 2.2
25/08:00pm 10.5 6.5 8.9 90 0.8 WNW 20 28 11 15 1016.1 1016.0 2.0
25/07:35pm 10.6 4.4 9.2 91 0.7 WSW 32 50 17 27 1015.9 1015.8 1.8
25/07:30pm 10.6 3.5 9.5 93 0.6 WSW 37 50 20 27 1016.0 1015.9 1.8
25/07:00pm 10.8 3.4 9.7 93 0.6 WSW 39 50 21 27 1015.3 1015.2 1.4
25/06:30pm 12.0 3.1 10.7 92 0.7 WSW 48 57 26 31 1014.1 1014.0 0.8
25/06:22pm 12.5 3.3 10.9 90 0.8 WSW 50 61 27 33 1013.9 1013.8 0.4
25/06:15pm 13.3 4.2 11.2 87 1.1 WNW 50 70 27 38 1013.7 1013.6 0.2
25/06:05pm 17.2 9.2 8.9 58 4.3 WNW 41 61 22 33 1013.2 1013.1 0.0
25/06:00pm 18.4 9.7 7.5 49 5.5 NW 43 56 23 30 1013.0 1012.9 0.0
25/05:30pm 19.3 10.6 6.1 42 6.6 WNW 41 52 22 28 1012.8 1012.7 0.0
25/05:00pm 19.8 11.1 4.3 36 7.5 NW 39 54 21 29 1012.7 1012.6 0.0
25/04:30pm 20.6 12.0 4.6 35 7.8 WNW 39 52 21 28 1012.8 1012.7 0.0
25/04:02pm 20.1 11.3 3.8 34 7.8 NW 39 57 21 31 1013.1 1013.0 0.0
25/04:00pm 19.8 10.5 3.1 33 7.8 NW 41 57 22 31 1013.2 1013.1 0.0
25/03:33pm 20.7 12.6 3.0 31 8.4 WNW 35 54 19 29 1013.2 1013.1 0.0
25/03:30pm 20.6 12.5 3.3 32 8.2 WNW 35 48 19 26 1013.4 1013.3 0.0
25/03:00pm 19.2 10.8 3.8 36 7.3 WNW 37 52 20 28 1014.2 1014.1 0.0
25/02:30pm 18.6 10.6 4.0 38 6.9 NW 35 50 19 27 1014.6 1014.5 0.0
25/02:00pm 20.0 13.2 3.3 33 7.9 NW 28 46 15 25 1014.7 1014.6 0.0
25/01:30pm 17.9 10.6 4.5 41 6.4 NW 32 43 17 23 1015.4 1015.3 0.0
25/01:00pm 17.6 10.8 4.9 43 6.1 NW 30 48 16 26 1016.2 1016.1 0.0
25/12:56pm 17.8 11.3 4.7 42 6.3 NW 28 48 15 26 1016.3 1016.2 0.0
25/12:30pm 17.8 11.6 4.4 41 6.4 NNW 26 43 14 23 1016.7 1016.6 0.0
25/12:00pm 16.9 10.7 4.3 43 5.9 NNW 26 37 14 20 1017.2 1017.1 0.0
25/11:30am 16.6 10.8 4.3 44 5.8 NNW 24 33 13 18 1017.8 1017.7 0.0
25/11:00am 15.0 9.8 3.5 46 5.2 N 20 30 11 16 1018.1 1018.0 0.0
25/10:30am 14.5 9.4 3.9 49 4.8 N 20 28 11 15 1018.6 1018.5 0.0
25/10:00am 13.9 8.7 3.4 49 4.7 N 20 28 11 15 1018.4 1018.3 0.0
25/09:30am 13.8 8.8 3.6 50 4.6 NNE 19 24 10 13 1018.4 1018.3 0.0
25/09:00am 13.4 8.8 3.5 51 4.4 NNE 17 22 9 12 1018.6 1018.5 0.0
25/08:30am 12.1 7.9 3.6 56 3.8 NNE 15 17 8 9 1018.6 1018.5 0.0
25/08:00am 11.4 7.6 3.7 59 3.4 NNE 13 17 7 9 1018.9 1018.8 0.0
25/07:30am 11.1 7.2 3.6 60 3.3 NNE 13 15 7 8 1018.9 1018.8 0.0
25/07:00am 11.0 7.2 3.8 61 3.2 NNE 13 17 7 9 1019.1 1019.0 0.0
25/06:30am 10.9 7.8 3.7 61 3.2 N 9 11 5 6 1019.0 1018.9 0.0
25/06:00am 10.9 7.9 3.9 62 3.1 NNE 9 11 5 6 1018.9 1018.8 0.0
25/05:30am 10.8 8.2 4.3 64 2.9 N 7 9 4 5 1019.2 1019.1 0.0
25/05:00am 10.6 8.0 4.3 65 2.8 N 7 9 4 5 1019.3 1019.2 0.0
25/04:30am 10.0 6.9 3.5 64 2.8 N 9 11 5 6 1019.4 1019.3 0.0
25/04:00am 10.2 7.1 3.5 63 2.9 N 9 11 5 6 1019.4 1019.3 0.0
25/03:30am 10.4 7.7 3.7 63 2.9 N 7 9 4 5 1019.6 1019.5 0.0
25/03:00am 12.0 10.6 3.5 56 3.8 CALM 0 0 0 0 1019.8 1019.7 0.0
25/02:30am 12.2 10.0 3.4 55 3.9 WSW 4 9 2 5 1020.5 1020.4 0.0
25/02:00am 12.3 10.9 3.5 55 3.9 CALM 0 2 0 1 1020.4 1020.3 0.0
25/01:30am 12.8 11.0 3.2 52 4.3 N 2 7 1 4 1021.0 1020.9 0.0
25/01:00am 12.8 8.9 3.5 53 4.2 SSW 13 17 7 9 1021.0 1020.9 0.0
25/12:30am 12.5 8.7 4.0 56 3.8 SW 13 20 7 11 1021.7 1021.6 0.0
25/12:00am 12.3 9.4 4.5 59 3.5 SSW 9 11 5 6 1021.9 1021.8 0.0

Other Formats:

Comma delimited format used in spreadsheet applications
http://www.bom.gov.au/fwo/IDS60801/IDS60801.94820.axf

JavaScript Object Notation format (JSON) in row-major order
http://www.bom.gov.au/fwo/IDS60801/IDS60801.94820.json